ePrivacy and GPDR Cookie Consent by Cookie Consent
EmailTwitter


Observations de surface / Québec / CYSC

Régions: Québec | Canada | États-Unis | Europe | France | UK | Ailleurs
Station
Affichage
Infos & localisation pour CYSC | Aide pour décoder les METARs

Observations prises le 2021-10-17 à 16H00 UTC à SHERBROOKE, QB (CYSC)

Etat du ciel: couvert.

Température: 10.0 Celsius

Point de rosée: 7.0 Celsius

Humidité relative: 82%

Facteur vent 7.

Facteur vent (rafales) 7.

Vents: Ouest à 20 km/h ou 11 noeuds.

Rafale du vent: 30 km/h ou 16 noeuds.

Pression au niveau moyen de la mer: 100.45 kilopascals.

Calage altimétrique: 100.41 kilopascals ou 29.65 pouces de mercure.

Visibilité horizontale: 9.00 milles terrestres ou 14.40 kilomètres.

Hauteur du plafond: 671 mètres ( 2200 pieds ).

Observation METAR:

CYSC 171600Z AUTO 27011G16KT 9SM OVC022 10/07 A2965 RMK SLP045 DENSITY ALT

800FT=